sensor_id;sensor_type;location;lat;lon;timestamp;P1;durP1;ratioP1;P2;durP2;ratioP2
44516;SDS011;30223;17.182;-96.766;2022-12-17T00:07:26;12.77;;;6.90;;
44516;SDS011;30223;17.182;-96.766;2022-12-17T00:10:10;9.35;;;7.15;;
44516;SDS011;30223;17.182;-96.766;2022-12-17T00:12:55;9.48;;;6.95;;
44516;SDS011;30223;17.182;-96.766;2022-12-17T00:15:40;10.48;;;7.13;;
44516;SDS011;30223;17.182;-96.766;2022-12-17T00:18:25;8.93;;;7.47;;
44516;SDS011;30223;17.182;-96.766;2022-12-17T00:21:11;11.43;;;6.22;;
44516;SDS011;30223;17.182;-96.766;2022-12-17T00:23:56;10.98;;;7.05;;
44516;SDS011;30223;17.182;-96.766;2022-12-17T00:26:40;12.63;;;6.93;;
44516;SDS011;30223;17.182;-96.766;2022-12-17T00:29:25;10.00;;;7.00;;
44516;SDS011;30223;17.182;-96.766;2022-12-17T00:32:09;12.18;;;7.40;;
44516;SDS011;30223;17.182;-96.766;2022-12-17T00:34:54;9.40;;;7.13;;
44516;SDS011;30223;17.182;-96.766;2022-12-17T00:37:39;11.77;;;7.10;;
44516;SDS011;30223;17.182;-96.766;2022-12-17T00:40:24;10.07;;;5.88;;
44516;SDS011;30223;17.182;-96.766;2022-12-17T00:43:09;10.63;;;6.47;;
44516;SDS011;30223;17.182;-96.766;2022-12-17T00:45:55;9.00;;;6.60;;
44516;SDS011;30223;17.182;-96.766;2022-12-17T00:48:40;10.15;;;6.85;;
44516;SDS011;30223;17.182;-96.766;2022-12-17T00:51:25;10.10;;;6.43;;
44516;SDS011;30223;17.182;-96.766;2022-12-17T00:54:10;8.20;;;6.18;;
44516;SDS011;30223;17.182;-96.766;2022-12-17T00:56:56;12.05;;;7.75;;
44516;SDS011;30223;17.182;-96.766;2022-12-17T00:59:40;8.50;;;6.35;;
44516;SDS011;30223;17.182;-96.766;2022-12-17T01:02:25;11.43;;;6.38;;
44516;SDS011;30223;17.182;-96.766;2022-12-17T01:05:11;8.45;;;6.28;;
44516;SDS011;30223;17.182;-96.766;2022-12-17T01:07:56;11.60;;;6.68;;
44516;SDS011;30223;17.182;-96.766;2022-12-17T01:10:49;9.10;;;6.45;;
44516;SDS011;30223;17.182;-96.766;2022-12-17T01:13:34;11.75;;;6.82;;
44516;SDS011;30223;17.182;-96.766;2022-12-17T01:16:18;12.50;;;7.22;;
44516;SDS011;30223;17.182;-96.766;2022-12-17T01:19:03;8.90;;;6.78;;
44516;SDS011;30223;17.182;-96.766;2022-12-17T01:21:48;10.10;;;6.70;;
44516;SDS011;30223;17.182;-96.766;2022-12-17T01:24:33;7.80;;;5.88;;
44516;SDS011;30223;17.182;-96.766;2022-12-17T01:27:17;8.38;;;6.53;;
44516;SDS011;30223;17.182;-96.766;2022-12-17T01:30:02;11.38;;;6.88;;
44516;SDS011;30223;17.182;-96.766;2022-12-17T01:32:47;10.80;;;7.28;;
44516;SDS011;30223;17.182;-96.766;2022-12-17T01:35:31;12.68;;;7.32;;
44516;SDS011;30223;17.182;-96.766;2022-12-17T01:38:17;9.48;;;6.10;;
44516;SDS011;30223;17.182;-96.766;2022-12-17T01:41:02;6.88;;;5.95;;
44516;SDS011;30223;17.182;-96.766;2022-12-17T01:43:47;7.57;;;6.00;;
44516;SDS011;30223;17.182;-96.766;2022-12-17T01:46:34;10.38;;;6.38;;
44516;SDS011;30223;17.182;-96.766;2022-12-17T01:49:23;10.85;;;6.35;;
44516;SDS011;30223;17.182;-96.766;2022-12-17T01:52:10;11.93;;;7.53;;
44516;SDS011;30223;17.182;-96.766;2022-12-17T01:54:56;17.42;;;8.82;;
44516;SDS011;30223;17.182;-96.766;2022-12-17T01:57:41;11.27;;;9.25;;
44516;SDS011;30223;17.182;-96.766;2022-12-17T02:00:26;18.38;;;10.85;;
44516;SDS011;30223;17.182;-96.766;2022-12-17T02:03:12;18.85;;;12.00;;
44516;SDS011;30223;17.182;-96.766;2022-12-17T02:06:11;17.80;;;11.18;;
44516;SDS011;30223;17.182;-96.766;2022-12-17T02:09:05;17.80;;;12.95;;
44516;SDS011;30223;17.182;-96.766;2022-12-17T02:11:55;25.67;;;12.23;;
44516;SDS011;30223;17.182;-96.766;2022-12-17T02:17:56;22.85;;;13.23;;
44516;SDS011;30223;17.182;-96.766;2022-12-17T02:20:45;19.85;;;13.88;;
44516;SDS011;30223;17.182;-96.766;2022-12-17T02:29:55;46.38;;;21.98;;
44516;SDS011;30223;17.182;-96.766;2022-12-17T02:32:44;42.22;;;20.85;;
44516;SDS011;30223;17.182;-96.766;2022-12-17T02:35:51;37.78;;;19.10;;
44516;SDS011;30223;17.182;-96.766;2022-12-17T02:38:40;41.17;;;19.08;;
44516;SDS011;30223;17.182;-96.766;2022-12-17T02:44:12;30.50;;;15.88;;
44516;SDS011;30223;17.182;-96.766;2022-12-17T02:47:01;33.60;;;15.05;;
44516;SDS011;30223;17.182;-96.766;2022-12-17T02:49:48;32.30;;;16.63;;
44516;SDS011;30223;17.182;-96.766;2022-12-17T02:52:33;30.38;;;15.18;;
44516;SDS011;30223;17.182;-96.766;2022-12-17T02:55:21;33.13;;;13.77;;
44516;SDS011;30223;17.182;-96.766;2022-12-17T02:58:06;23.10;;;11.80;;
44516;SDS011;30223;17.182;-96.766;2022-12-17T03:00:51;20.08;;;12.07;;
44516;SDS011;30223;17.182;-96.766;2022-12-17T03:03:36;19.42;;;9.77;;
44516;SDS011;30223;17.182;-96.766;2022-12-17T03:06:20;18.05;;;9.93;;
44516;SDS011;30223;17.182;-96.766;2022-12-17T03:09:05;22.13;;;13.45;;
44516;SDS011;30223;17.182;-96.766;2022-12-17T03:11:49;27.63;;;10.85;;
44516;SDS011;30223;17.182;-96.766;2022-12-17T03:14:34;19.02;;;10.60;;
44516;SDS011;30223;17.182;-96.766;2022-12-17T03:17:19;15.60;;;9.93;;
44516;SDS011;30223;17.182;-96.766;2022-12-17T03:20:14;20.48;;;11.25;;
44516;SDS011;30223;17.182;-96.766;2022-12-17T03:23:06;17.10;;;9.07;;
44516;SDS011;30223;17.182;-96.766;2022-12-17T03:25:52;19.55;;;10.00;;
44516;SDS011;30223;17.182;-96.766;2022-12-17T03:28:40;16.65;;;9.43;;
44516;SDS011;30223;17.182;-96.766;2022-12-17T03:31:25;21.05;;;9.25;;
44516;SDS011;30223;17.182;-96.766;2022-12-17T03:34:10;20.67;;;11.20;;
44516;SDS011;30223;17.182;-96.766;2022-12-17T03:36:54;21.00;;;10.05;;
44516;SDS011;30223;17.182;-96.766;2022-12-17T03:39:39;15.40;;;8.77;;
44516;SDS011;30223;17.182;-96.766;2022-12-17T03:42:23;16.52;;;9.27;;
44516;SDS011;30223;17.182;-96.766;2022-12-17T03:45:09;19.45;;;10.77;;
44516;SDS011;30223;17.182;-96.766;2022-12-17T03:48:10;15.80;;;9.02;;
44516;SDS011;30223;17.182;-96.766;2022-12-17T03:51:16;11.90;;;8.77;;
44516;SDS011;30223;17.182;-96.766;2022-12-17T03:54:01;13.57;;;8.73;;
44516;SDS011;30223;17.182;-96.766;2022-12-17T03:56:46;14.38;;;8.70;;
44516;SDS011;30223;17.182;-96.766;2022-12-17T03:59:30;14.27;;;8.40;;
44516;SDS011;30223;17.182;-96.766;2022-12-17T04:02:15;16.45;;;8.20;;
44516;SDS011;30223;17.182;-96.766;2022-12-17T04:05:00;13.18;;;7.88;;
44516;SDS011;30223;17.182;-96.766;2022-12-17T04:07:44;13.05;;;9.10;;
44516;SDS011;30223;17.182;-96.766;2022-12-17T04:10:29;16.27;;;8.13;;
44516;SDS011;30223;17.182;-96.766;2022-12-17T04:13:14;17.48;;;8.77;;
44516;SDS011;30223;17.182;-96.766;2022-12-17T04:15:58;13.60;;;8.57;;
44516;SDS011;30223;17.182;-96.766;2022-12-17T04:18:43;13.38;;;7.50;;
44516;SDS011;30223;17.182;-96.766;2022-12-17T04:21:28;12.18;;;8.35;;
44516;SDS011;30223;17.182;-96.766;2022-12-17T04:24:12;12.25;;;7.18;;
44516;SDS011;30223;17.182;-96.766;2022-12-17T04:26:57;10.93;;;7.28;;
44516;SDS011;30223;17.182;-96.766;2022-12-17T04:29:41;10.20;;;6.78;;
44516;SDS011;30223;17.182;-96.766;2022-12-17T04:32:26;8.82;;;7.00;;
44516;SDS011;30223;17.182;-96.766;2022-12-17T04:35:11;11.52;;;7.03;;
44516;SDS011;30223;17.182;-96.766;2022-12-17T04:38:09;13.15;;;6.85;;
44516;SDS011;30223;17.182;-96.766;2022-12-17T04:40:54;14.07;;;8.95;;
44516;SDS011;30223;17.182;-96.766;2022-12-17T04:43:39;12.98;;;6.20;;
44516;SDS011;30223;17.182;-96.766;2022-12-17T04:46:23;12.77;;;7.68;;
44516;SDS011;30223;17.182;-96.766;2022-12-17T04:49:08;11.95;;;6.53;;
44516;SDS011;30223;17.182;-96.766;2022-12-17T04:51:52;14.15;;;7.30;;
44516;SDS011;30223;17.182;-96.766;2022-12-17T04:54:37;11.23;;;8.15;;
44516;SDS011;30223;17.182;-96.766;2022-12-17T04:57:22;12.77;;;6.88;;
44516;SDS011;30223;17.182;-96.766;2022-12-17T05:00:06;13.40;;;8.27;;
44516;SDS011;30223;17.182;-96.766;2022-12-17T05:02:52;13.15;;;6.57;;
44516;SDS011;30223;17.182;-96.766;2022-12-17T05:05:36;11.75;;;7.38;;
44516;SDS011;30223;17.182;-96.766;2022-12-17T05:08:35;11.65;;;5.47;;
44516;SDS011;30223;17.182;-96.766;2022-12-17T05:11:20;12.02;;;6.95;;
44516;SDS011;30223;17.182;-96.766;2022-12-17T05:14:06;11.38;;;7.05;;
44516;SDS011;30223;17.182;-96.766;2022-12-17T05:16:50;9.73;;;6.55;;
44516;SDS011;30223;17.182;-96.766;2022-12-17T05:19:35;11.27;;;6.57;;
44516;SDS011;30223;17.182;-96.766;2022-12-17T05:22:20;8.73;;;6.30;;
44516;SDS011;30223;17.182;-96.766;2022-12-17T05:25:04;10.45;;;6.47;;
44516;SDS011;30223;17.182;-96.766;2022-12-17T05:27:49;10.35;;;6.45;;
44516;SDS011;30223;17.182;-96.766;2022-12-17T05:30:34;9.93;;;6.05;;
44516;SDS011;30223;17.182;-96.766;2022-12-17T05:33:19;10.95;;;6.97;;
44516;SDS011;30223;17.182;-96.766;2022-12-17T05:36:04;12.80;;;7.53;;
44516;SDS011;30223;17.182;-96.766;2022-12-17T05:38:49;9.52;;;5.57;;
44516;SDS011;30223;17.182;-96.766;2022-12-17T05:41:34;10.55;;;6.70;;
44516;SDS011;30223;17.182;-96.766;2022-12-17T05:44:19;14.95;;;6.60;;
44516;SDS011;30223;17.182;-96.766;2022-12-17T05:47:04;9.02;;;6.18;;
44516;SDS011;30223;17.182;-96.766;2022-12-17T05:49:49;10.95;;;6.07;;
44516;SDS011;30223;17.182;-96.766;2022-12-17T05:52:34;8.85;;;5.63;;
44516;SDS011;30223;17.182;-96.766;2022-12-17T05:55:19;9.77;;;7.38;;
44516;SDS011;30223;17.182;-96.766;2022-12-17T05:58:08;6.82;;;4.88;;
44516;SDS011;30223;17.182;-96.766;2022-12-17T06:00:58;10.00;;;6.25;;
44516;SDS011;30223;17.182;-96.766;2022-12-17T06:03:44;8.30;;;6.13;;
44516;SDS011;30223;17.182;-96.766;2022-12-17T06:06:29;11.15;;;6.35;;
44516;SDS011;30223;17.182;-96.766;2022-12-17T06:09:14;11.23;;;6.45;;
44516;SDS011;30223;17.182;-96.766;2022-12-17T06:11:59;7.53;;;5.82;;
44516;SDS011;30223;17.182;-96.766;2022-12-17T06:14:44;6.63;;;5.32;;
44516;SDS011;30223;17.182;-96.766;2022-12-17T06:17:29;8.65;;;5.30;;
44516;SDS011;30223;17.182;-96.766;2022-12-17T06:20:13;6.13;;;5.35;;
44516;SDS011;30223;17.182;-96.766;2022-12-17T06:23:02;8.23;;;6.15;;
44516;SDS011;30223;17.182;-96.766;2022-12-17T06:25:52;9.68;;;5.72;;
44516;SDS011;30223;17.182;-96.766;2022-12-17T06:31:23;7.88;;;5.55;;
44516;SDS011;30223;17.182;-96.766;2022-12-17T06:34:07;7.68;;;5.28;;
44516;SDS011;30223;17.182;-96.766;2022-12-17T06:36:52;8.02;;;6.50;;
44516;SDS011;30223;17.182;-96.766;2022-12-17T06:39:37;8.95;;;5.45;;
44516;SDS011;30223;17.182;-96.766;2022-12-17T06:42:21;8.75;;;6.07;;
44516;SDS011;30223;17.182;-96.766;2022-12-17T06:45:06;8.02;;;5.13;;
44516;SDS011;30223;17.182;-96.766;2022-12-17T06:47:51;9.25;;;4.65;;
44516;SDS011;30223;17.182;-96.766;2022-12-17T06:50:44;7.90;;;5.28;;
44516;SDS011;30223;17.182;-96.766;2022-12-17T06:53:28;7.25;;;5.45;;
44516;SDS011;30223;17.182;-96.766;2022-12-17T06:56:13;9.02;;;5.30;;
44516;SDS011;30223;17.182;-96.766;2022-12-17T06:58:57;12.43;;;6.57;;
44516;SDS011;30223;17.182;-96.766;2022-12-17T07:01:42;7.32;;;5.20;;
44516;SDS011;30223;17.182;-96.766;2022-12-17T07:04:27;8.35;;;5.72;;
44516;SDS011;30223;17.182;-96.766;2022-12-17T07:07:12;6.95;;;4.78;;
44516;SDS011;30223;17.182;-96.766;2022-12-17T07:09:57;7.28;;;5.05;;
44516;SDS011;30223;17.182;-96.766;2022-12-17T07:12:42;11.07;;;5.35;;
44516;SDS011;30223;17.182;-96.766;2022-12-17T07:15:27;7.63;;;5.00;;
44516;SDS011;30223;17.182;-96.766;2022-12-17T07:18:11;7.93;;;5.55;;
44516;SDS011;30223;17.182;-96.766;2022-12-17T07:20:56;6.82;;;4.50;;
44516;SDS011;30223;17.182;-96.766;2022-12-17T07:23:41;6.10;;;5.07;;
44516;SDS011;30223;17.182;-96.766;2022-12-17T07:26:25;6.72;;;5.18;;
44516;SDS011;30223;17.182;-96.766;2022-12-17T07:29:10;5.53;;;4.38;;
44516;SDS011;30223;17.182;-96.766;2022-12-17T07:31:55;9.02;;;5.60;;
44516;SDS011;30223;17.182;-96.766;2022-12-17T07:34:39;8.88;;;4.63;;
44516;SDS011;30223;17.182;-96.766;2022-12-17T07:37:24;9.73;;;5.47;;
44516;SDS011;30223;17.182;-96.766;2022-12-17T07:40:08;7.43;;;4.78;;
44516;SDS011;30223;17.182;-96.766;2022-12-17T07:42:53;6.57;;;4.63;;
44516;SDS011;30223;17.182;-96.766;2022-12-17T07:45:38;7.25;;;5.15;;
44516;SDS011;30223;17.182;-96.766;2022-12-17T07:48:23;7.95;;;4.60;;
44516;SDS011;30223;17.182;-96.766;2022-12-17T07:51:07;6.35;;;4.70;;
44516;SDS011;30223;17.182;-96.766;2022-12-17T07:53:52;6.88;;;5.10;;
44516;SDS011;30223;17.182;-96.766;2022-12-17T07:56:37;7.50;;;5.18;;
44516;SDS011;30223;17.182;-96.766;2022-12-17T07:59:21;6.10;;;4.85;;
44516;SDS011;30223;17.182;-96.766;2022-12-17T08:02:08;8.52;;;5.20;;
44516;SDS011;30223;17.182;-96.766;2022-12-17T08:04:53;5.72;;;4.65;;
44516;SDS011;30223;17.182;-96.766;2022-12-17T08:07:37;6.53;;;4.60;;
44516;SDS011;30223;17.182;-96.766;2022-12-17T08:10:22;6.25;;;4.53;;
44516;SDS011;30223;17.182;-96.766;2022-12-17T08:13:07;7.90;;;5.10;;
44516;SDS011;30223;17.182;-96.766;2022-12-17T08:15:52;5.90;;;4.18;;
44516;SDS011;30223;17.182;-96.766;2022-12-17T08:18:37;5.28;;;4.00;;
44516;SDS011;30223;17.182;-96.766;2022-12-17T08:21:22;6.32;;;5.07;;
44516;SDS011;30223;17.182;-96.766;2022-12-17T08:24:07;6.95;;;4.72;;
44516;SDS011;30223;17.182;-96.766;2022-12-17T08:26:52;5.22;;;3.85;;
44516;SDS011;30223;17.182;-96.766;2022-12-17T08:29:37;10.18;;;4.10;;
44516;SDS011;30223;17.182;-96.766;2022-12-17T08:32:21;5.38;;;3.72;;
44516;SDS011;30223;17.182;-96.766;2022-12-17T08:35:06;6.90;;;4.75;;
44516;SDS011;30223;17.182;-96.766;2022-12-17T08:37:51;7.78;;;4.53;;
44516;SDS011;30223;17.182;-96.766;2022-12-17T08:40:36;7.65;;;5.63;;
44516;SDS011;30223;17.182;-96.766;2022-12-17T08:43:21;6.88;;;4.57;;
44516;SDS011;30223;17.182;-96.766;2022-12-17T08:46:05;4.47;;;3.67;;
44516;SDS011;30223;17.182;-96.766;2022-12-17T08:48:50;7.70;;;4.70;;
44516;SDS011;30223;17.182;-96.766;2022-12-17T08:51:34;5.80;;;3.80;;
44516;SDS011;30223;17.182;-96.766;2022-12-17T08:54:19;7.88;;;4.53;;
44516;SDS011;30223;17.182;-96.766;2022-12-17T08:57:04;6.07;;;4.45;;
44516;SDS011;30223;17.182;-96.766;2022-12-17T08:59:48;9.40;;;4.80;;
44516;SDS011;30223;17.182;-96.766;2022-12-17T09:02:33;9.15;;;5.45;;
44516;SDS011;30223;17.182;-96.766;2022-12-17T09:05:17;9.38;;;5.30;;
44516;SDS011;30223;17.182;-96.766;2022-12-17T09:08:03;6.20;;;4.88;;
44516;SDS011;30223;17.182;-96.766;2022-12-17T09:10:50;7.75;;;4.13;;
44516;SDS011;30223;17.182;-96.766;2022-12-17T09:13:35;6.20;;;5.00;;
44516;SDS011;30223;17.182;-96.766;2022-12-17T09:16:20;9.90;;;5.13;;
44516;SDS011;30223;17.182;-96.766;2022-12-17T09:19:05;6.07;;;3.65;;
44516;SDS011;30223;17.182;-96.766;2022-12-17T09:21:52;7.35;;;5.68;;
44516;SDS011;30223;17.182;-96.766;2022-12-17T09:24:37;5.35;;;3.88;;
44516;SDS011;30223;17.182;-96.766;2022-12-17T09:27:21;4.93;;;3.75;;
44516;SDS011;30223;17.182;-96.766;2022-12-17T09:30:06;8.48;;;4.10;;
44516;SDS011;30223;17.182;-96.766;2022-12-17T09:32:51;6.45;;;4.30;;
44516;SDS011;30223;17.182;-96.766;2022-12-17T09:35:37;5.32;;;4.55;;
44516;SDS011;30223;17.182;-96.766;2022-12-17T09:38:22;7.25;;;4.68;;
44516;SDS011;30223;17.182;-96.766;2022-12-17T09:41:17;6.75;;;4.70;;
44516;SDS011;30223;17.182;-96.766;2022-12-17T09:44:19;6.22;;;3.67;;
44516;SDS011;30223;17.182;-96.766;2022-12-17T09:50:13;6.10;;;4.03;;
44516;SDS011;30223;17.182;-96.766;2022-12-17T09:53:02;5.55;;;4.65;;
44516;SDS011;30223;17.182;-96.766;2022-12-17T09:55:59;6.88;;;4.10;;
44516;SDS011;30223;17.182;-96.766;2022-12-17T09:58:45;4.55;;;3.75;;
44516;SDS011;30223;17.182;-96.766;2022-12-17T10:01:33;6.35;;;4.53;;
44516;SDS011;30223;17.182;-96.766;2022-12-17T10:07:13;5.47;;;3.72;;
44516;SDS011;30223;17.182;-96.766;2022-12-17T10:10:09;7.20;;;4.13;;
44516;SDS011;30223;17.182;-96.766;2022-12-17T10:13:12;7.28;;;4.25;;
44516;SDS011;30223;17.182;-96.766;2022-12-17T10:15:58;5.75;;;3.50;;
44516;SDS011;30223;17.182;-96.766;2022-12-17T10:18:43;7.35;;;4.82;;
44516;SDS011;30223;17.182;-96.766;2022-12-17T10:21:28;7.65;;;4.93;;
44516;SDS011;30223;17.182;-96.766;2022-12-17T10:24:14;5.68;;;4.50;;
44516;SDS011;30223;17.182;-96.766;2022-12-17T10:27:06;5.03;;;4.20;;
44516;SDS011;30223;17.182;-96.766;2022-12-17T10:29:52;8.70;;;4.15;;
44516;SDS011;30223;17.182;-96.766;2022-12-17T10:32:37;6.18;;;3.40;;
44516;SDS011;30223;17.182;-96.766;2022-12-17T10:35:22;7.32;;;3.42;;
44516;SDS011;30223;17.182;-96.766;2022-12-17T10:38:28;5.18;;;3.90;;
44516;SDS011;30223;17.182;-96.766;2022-12-17T10:41:33;5.65;;;4.80;;
44516;SDS011;30223;17.182;-96.766;2022-12-17T10:44:28;5.55;;;3.67;;
44516;SDS011;30223;17.182;-96.766;2022-12-17T10:47:16;6.47;;;4.50;;
44516;SDS011;30223;17.182;-96.766;2022-12-17T10:50:13;6.65;;;4.22;;
44516;SDS011;30223;17.182;-96.766;2022-12-17T10:53:00;6.70;;;3.92;;
44516;SDS011;30223;17.182;-96.766;2022-12-17T10:55:48;6.68;;;3.80;;
44516;SDS011;30223;17.182;-96.766;2022-12-17T10:58:49;4.45;;;3.65;;
44516;SDS011;30223;17.182;-96.766;2022-12-17T11:01:38;6.10;;;4.20;;
44516;SDS011;30223;17.182;-96.766;2022-12-17T11:04:29;4.38;;;3.35;;
44516;SDS011;30223;17.182;-96.766;2022-12-17T11:07:16;5.53;;;4.10;;
44516;SDS011;30223;17.182;-96.766;2022-12-17T11:10:30;5.82;;;4.45;;
44516;SDS011;30223;17.182;-96.766;2022-12-17T11:16:34;8.00;;;4.63;;
44516;SDS011;30223;17.182;-96.766;2022-12-17T11:22:41;4.20;;;3.80;;
44516;SDS011;30223;17.182;-96.766;2022-12-17T11:28:34;4.90;;;3.63;;
44516;SDS011;30223;17.182;-96.766;2022-12-17T11:38:29;5.90;;;4.13;;
44516;SDS011;30223;17.182;-96.766;2022-12-17T11:41:17;4.57;;;3.47;;
44516;SDS011;30223;17.182;-96.766;2022-12-17T11:47:28;5.00;;;3.40;;
44516;SDS011;30223;17.182;-96.766;2022-12-17T12:00:07;4.70;;;3.20;;
44516;SDS011;30223;17.182;-96.766;2022-12-17T12:06:11;5.63;;;3.38;;
44516;SDS011;30223;17.182;-96.766;2022-12-17T12:09:09;6.00;;;3.28;;
44516;SDS011;30223;17.182;-96.766;2022-12-17T12:18:29;6.72;;;3.80;;
44516;SDS011;30223;17.182;-96.766;2022-12-17T12:21:38;6.13;;;3.63;;
44516;SDS011;30223;17.182;-96.766;2022-12-17T12:33:47;4.38;;;3.03;;
44516;SDS011;30223;17.182;-96.766;2022-12-17T12:36:39;6.70;;;3.78;;
44516;SDS011;30223;17.182;-96.766;2022-12-17T12:40:11;5.40;;;3.63;;
44516;SDS011;30223;17.182;-96.766;2022-12-17T12:42:42;4.63;;;3.42;;
44516;SDS011;30223;17.182;-96.766;2022-12-17T12:51:46;4.80;;;3.72;;
44516;SDS011;30223;17.182;-96.766;2022-12-17T12:57:39;6.30;;;3.88;;
44516;SDS011;30223;17.182;-96.766;2022-12-17T13:03:32;4.05;;;2.92;;
44516;SDS011;30223;17.182;-96.766;2022-12-17T13:14:20;3.55;;;2.92;;
44516;SDS011;30223;17.182;-96.766;2022-12-17T13:17:38;5.95;;;3.88;;
44516;SDS011;30223;17.182;-96.766;2022-12-17T13:24:53;5.07;;;3.80;;
44516;SDS011;30223;17.182;-96.766;2022-12-17T13:36:05;4.25;;;3.33;;
44516;SDS011;30223;17.182;-96.766;2022-12-17T13:38:56;5.15;;;3.80;;
44516;SDS011;30223;17.182;-96.766;2022-12-17T13:41:32;4.50;;;3.80;;
44516;SDS011;30223;17.182;-96.766;2022-12-17T13:44:19;8.55;;;4.72;;
44516;SDS011;30223;17.182;-96.766;2022-12-17T14:01:05;4.60;;;3.58;;
44516;SDS011;30223;17.182;-96.766;2022-12-17T14:03:33;4.53;;;3.58;;
44516;SDS011;30223;17.182;-96.766;2022-12-17T14:06:01;5.95;;;3.78;;
44516;SDS011;30223;17.182;-96.766;2022-12-17T14:08:30;4.35;;;3.70;;
44516;SDS011;30223;17.182;-96.766;2022-12-17T14:10:59;4.95;;;3.42;;
44516;SDS011;30223;17.182;-96.766;2022-12-17T14:13:45;5.47;;;3.78;;
44516;SDS011;30223;17.182;-96.766;2022-12-17T14:16:15;6.10;;;3.95;;
44516;SDS011;30223;17.182;-96.766;2022-12-17T14:18:48;4.53;;;3.35;;
44516;SDS011;30223;17.182;-96.766;2022-12-17T14:21:17;4.75;;;3.95;;
44516;SDS011;30223;17.182;-96.766;2022-12-17T14:23:45;5.15;;;3.55;;
44516;SDS011;30223;17.182;-96.766;2022-12-17T14:26:14;4.50;;;3.40;;
44516;SDS011;30223;17.182;-96.766;2022-12-17T14:28:48;5.95;;;3.97;;
44516;SDS011;30223;17.182;-96.766;2022-12-17T14:31:18;4.38;;;3.83;;
44516;SDS011;30223;17.182;-96.766;2022-12-17T14:33:58;5.38;;;3.50;;
44516;SDS011;30223;17.182;-96.766;2022-12-17T14:36:35;4.85;;;3.72;;
44516;SDS011;30223;17.182;-96.766;2022-12-17T14:41:44;6.90;;;4.25;;
44516;SDS011;30223;17.182;-96.766;2022-12-17T14:44:29;5.25;;;3.90;;
44516;SDS011;30223;17.182;-96.766;2022-12-17T14:52:36;10.38;;;4.20;;
44516;SDS011;30223;17.182;-96.766;2022-12-17T14:55:23;4.75;;;3.95;;
44516;SDS011;30223;17.182;-96.766;2022-12-17T15:00:42;5.07;;;3.90;;
44516;SDS011;30223;17.182;-96.766;2022-12-17T15:03:24;5.15;;;4.43;;
44516;SDS011;30223;17.182;-96.766;2022-12-17T15:06:14;5.05;;;3.25;;
44516;SDS011;30223;17.182;-96.766;2022-12-17T15:08:47;5.32;;;3.75;;
44516;SDS011;30223;17.182;-96.766;2022-12-17T15:11:18;6.13;;;4.80;;
44516;SDS011;30223;17.182;-96.766;2022-12-17T15:13:46;6.13;;;3.55;;
44516;SDS011;30223;17.182;-96.766;2022-12-17T15:16:13;7.13;;;4.38;;
44516;SDS011;30223;17.182;-96.766;2022-12-17T15:18:40;5.53;;;3.88;;
44516;SDS011;30223;17.182;-96.766;2022-12-17T15:21:07;5.03;;;4.38;;
44516;SDS011;30223;17.182;-96.766;2022-12-17T15:23:38;4.10;;;3.67;;
44516;SDS011;30223;17.182;-96.766;2022-12-17T15:26:07;6.03;;;4.57;;
44516;SDS011;30223;17.182;-96.766;2022-12-17T15:28:35;7.47;;;4.25;;
44516;SDS011;30223;17.182;-96.766;2022-12-17T15:31:02;8.05;;;4.25;;
44516;SDS011;30223;17.182;-96.766;2022-12-17T15:33:28;9.25;;;5.28;;
44516;SDS011;30223;17.182;-96.766;2022-12-17T15:35:56;8.63;;;3.72;;
44516;SDS011;30223;17.182;-96.766;2022-12-17T15:38:23;5.72;;;4.22;;
44516;SDS011;30223;17.182;-96.766;2022-12-17T15:40:50;6.30;;;4.25;;
44516;SDS011;30223;17.182;-96.766;2022-12-17T15:43:17;6.40;;;4.35;;
44516;SDS011;30223;17.182;-96.766;2022-12-17T15:45:44;5.07;;;4.05;;
44516;SDS011;30223;17.182;-96.766;2022-12-17T15:48:16;9.73;;;5.15;;
44516;SDS011;30223;17.182;-96.766;2022-12-17T15:50:44;7.07;;;4.90;;
44516;SDS011;30223;17.182;-96.766;2022-12-17T15:53:12;13.23;;;7.40;;
44516;SDS011;30223;17.182;-96.766;2022-12-17T15:55:38;15.98;;;8.82;;
44516;SDS011;30223;17.182;-96.766;2022-12-17T15:58:05;18.48;;;10.18;;
44516;SDS011;30223;17.182;-96.766;2022-12-17T16:00:35;16.05;;;8.90;;
44516;SDS011;30223;17.182;-96.766;2022-12-17T16:03:02;15.68;;;8.50;;
44516;SDS011;30223;17.182;-96.766;2022-12-17T16:05:29;10.88;;;7.47;;
44516;SDS011;30223;17.182;-96.766;2022-12-17T16:07:55;14.25;;;7.88;;
44516;SDS011;30223;17.182;-96.766;2022-12-17T16:10:26;15.65;;;8.60;;
44516;SDS011;30223;17.182;-96.766;2022-12-17T16:12:53;16.05;;;7.15;;
44516;SDS011;30223;17.182;-96.766;2022-12-17T16:15:19;15.15;;;8.55;;
44516;SDS011;30223;17.182;-96.766;2022-12-17T16:17:46;18.95;;;7.82;;
44516;SDS011;30223;17.182;-96.766;2022-12-17T16:20:12;15.57;;;8.73;;
44516;SDS011;30223;17.182;-96.766;2022-12-17T16:22:39;18.90;;;8.00;;
44516;SDS011;30223;17.182;-96.766;2022-12-17T16:25:06;13.75;;;6.88;;
44516;SDS011;30223;17.182;-96.766;2022-12-17T16:27:33;17.45;;;8.35;;
44516;SDS011;30223;17.182;-96.766;2022-12-17T16:29:59;20.42;;;8.88;;
44516;SDS011;30223;17.182;-96.766;2022-12-17T16:32:27;16.15;;;9.85;;
44516;SDS011;30223;17.182;-96.766;2022-12-17T16:34:54;18.42;;;10.23;;
44516;SDS011;30223;17.182;-96.766;2022-12-17T16:37:20;15.65;;;9.00;;
44516;SDS011;30223;17.182;-96.766;2022-12-17T16:39:50;15.90;;;8.13;;
44516;SDS011;30223;17.182;-96.766;2022-12-17T16:42:16;11.80;;;7.63;;
44516;SDS011;30223;17.182;-96.766;2022-12-17T16:44:43;14.18;;;7.28;;
44516;SDS011;30223;17.182;-96.766;2022-12-17T16:47:10;13.32;;;8.13;;
44516;SDS011;30223;17.182;-96.766;2022-12-17T16:49:36;13.23;;;8.75;;
44516;SDS011;30223;17.182;-96.766;2022-12-17T16:52:03;10.93;;;7.38;;
44516;SDS011;30223;17.182;-96.766;2022-12-17T16:54:30;17.15;;;8.45;;
44516;SDS011;30223;17.182;-96.766;2022-12-17T16:56:58;14.60;;;7.05;;
44516;SDS011;30223;17.182;-96.766;2022-12-17T16:59:26;12.67;;;7.50;;
44516;SDS011;30223;17.182;-96.766;2022-12-17T17:01:53;13.02;;;8.38;;
44516;SDS011;30223;17.182;-96.766;2022-12-17T17:04:21;12.82;;;7.68;;
44516;SDS011;30223;17.182;-96.766;2022-12-17T17:06:49;15.10;;;8.45;;
44516;SDS011;30223;17.182;-96.766;2022-12-17T17:09:18;11.88;;;8.02;;
44516;SDS011;30223;17.182;-96.766;2022-12-17T17:11:46;12.25;;;8.02;;
44516;SDS011;30223;17.182;-96.766;2022-12-17T17:14:13;36.45;;;10.32;;
44516;SDS011;30223;17.182;-96.766;2022-12-17T17:16:40;12.57;;;7.78;;
44516;SDS011;30223;17.182;-96.766;2022-12-17T17:19:06;17.13;;;7.57;;
44516;SDS011;30223;17.182;-96.766;2022-12-17T17:21:37;30.75;;;8.98;;
44516;SDS011;30223;17.182;-96.766;2022-12-17T17:24:06;14.02;;;8.20;;
44516;SDS011;30223;17.182;-96.766;2022-12-17T17:26:37;13.77;;;8.82;;
44516;SDS011;30223;17.182;-96.766;2022-12-17T17:29:04;16.02;;;8.05;;
44516;SDS011;30223;17.182;-96.766;2022-12-17T17:31:32;14.50;;;7.97;;
44516;SDS011;30223;17.182;-96.766;2022-12-17T17:33:59;21.05;;;9.73;;
44516;SDS011;30223;17.182;-96.766;2022-12-17T17:36:27;19.50;;;9.23;;
44516;SDS011;30223;17.182;-96.766;2022-12-17T17:38:55;15.50;;;7.53;;
44516;SDS011;30223;17.182;-96.766;2022-12-17T17:41:25;14.15;;;7.93;;
44516;SDS011;30223;17.182;-96.766;2022-12-17T17:43:54;18.75;;;8.48;;
44516;SDS011;30223;17.182;-96.766;2022-12-17T17:46:28;13.73;;;8.68;;
44516;SDS011;30223;17.182;-96.766;2022-12-17T17:48:58;13.43;;;8.88;;
44516;SDS011;30223;17.182;-96.766;2022-12-17T17:51:27;14.45;;;9.25;;
44516;SDS011;30223;17.182;-96.766;2022-12-17T17:53:59;16.10;;;7.97;;
44516;SDS011;30223;17.182;-96.766;2022-12-17T17:56:30;15.70;;;8.20;;